Flinterbirka — PHFQ — position and weather

sailwx.info

Track history (hours):
 
Tides and Currents Weather Stations Pressure Air Temp Water Temp Dewpoint Dewpoint Depression Visibility Wind Speed Wind Dir Waves Ship Positions

Flinterbirka

Last reported at 2015-Jul-01 10:33 UTC. Time now 2015-Jul-05 04:29 UTC.
Position N 39°11' W 009°49'.

Length 81 m; draft 5.3 m.

Type: Ship. MMSI: 246525000.

Date/timePositionNaut miles runAvg speedWind from/ knotsBaromVisibWave heightAir tempDewpointWater temp
2015-Jul-01 10:33N 39°11' W 009°49'1010.5
2015-Jul-01 09:33N 39°00' W 009°51'1110.5
2015-Jul-01 08:33N 38°50' W 009°51'1010.3
2015-Jul-01 07:33N 38°39' W 009°50'1110.6
2015-Jul-01 06:33N 38°29' W 009°50'1010.3
2015-Jul-01 05:33N 38°18' W 009°49'1010.0
2015-Jul-01 04:33N 38°08' W 009°48'1010.1
2015-Jul-01 03:32N 37°58' W 009°48'1010.0
2015-Jul-01 02:30N 37°48' W 009°46'1010.1
2015-Jul-01 01:33N 37°38' W 009°46'1110.6
2015-Jul-01 00:33N 37°28' W 009°46'1110.6
2015-Jun-30 23:33N 37°17' W 009°45'1110.7
2015-Jun-30 22:33N 37°06' W 009°45'1110.7
2015-Jun-30 21:33N 36°56' W 009°45'1110.6
2015-Jun-30 20:33N 36°45' W 009°44'1210.6
2015-Jun-30 19:24N 36°33' W 009°43'910.4
2015-Jun-30 18:33N 36°24' W 009°42'1510.5
2015-Jun-30 17:09N 36°09' W 009°41'7310.3
2015-Jun-30 10:04N 34°57' W 009°35'610.5
2015-Jun-30 09:29N 34°51' W 009°34'4210.6
2015-Jun-30 05:30N 34°09' W 009°32'7210.4
2015-Jun-29 22:32N 32°57' W 009°27'24 9.8
2015-Jun-29 20:06N 32°33' W 009°25'9 9.8
2015-Jun-29 19:13N 32°25' W 009°21'  
2015-Jun-26 19:32N 32°19' W 009°15'88 2.1
2015-Jun-25 01:19N 31°01' W 010°04'33 6.4
2015-Jun-24 20:11N 30°30' W 009°52'  
Track history (hours):
 
Tides and Currents Weather Stations Pressure Air Temp Water Temp Dewpoint Dewpoint Depression Visibility Wind Speed Wind Dir Waves Ship Positions

Flinterbirka

Last reported at 2015-Jul-01 10:33 UTC. Time now 2015-Jul-05 04:29 UTC.
Position N 39°11' W 009°49'.

Length 81 m; draft 5.3 m.

Type: Ship. MMSI: 246525000.

Date/timePositionNaut miles runAvg speedWind from/ knotsBaromVisibWave heightAir tempDewpointWater temp
2015-Jul-01 10:33N 39°11' W 009°49'1010.5
2015-Jul-01 09:33N 39°00' W 009°51'1110.5
2015-Jul-01 08:33N 38°50' W 009°51'1010.3
2015-Jul-01 07:33N 38°39' W 009°50'1110.6
2015-Jul-01 06:33N 38°29' W 009°50'1010.3
2015-Jul-01 05:33N 38°18' W 009°49'1010.0
2015-Jul-01 04:33N 38°08' W 009°48'1010.1
2015-Jul-01 03:32N 37°58' W 009°48'1010.0
2015-Jul-01 02:30N 37°48' W 009°46'1010.1
2015-Jul-01 01:33N 37°38' W 009°46'1110.6
2015-Jul-01 00:33N 37°28' W 009°46'1110.6
2015-Jun-30 23:33N 37°17' W 009°45'1110.7
2015-Jun-30 22:33N 37°06' W 009°45'1110.7
2015-Jun-30 21:33N 36°56' W 009°45'1110.6
2015-Jun-30 20:33N 36°45' W 009°44'1210.6
2015-Jun-30 19:24N 36°33' W 009°43'910.4
2015-Jun-30 18:33N 36°24' W 009°42'1510.5
2015-Jun-30 17:09N 36°09' W 009°41'7310.3
2015-Jun-30 10:04N 34°57' W 009°35'610.5
2015-Jun-30 09:29N 34°51' W 009°34'4210.6
2015-Jun-30 05:30N 34°09' W 009°32'7210.4
2015-Jun-29 22:32N 32°57' W 009°27'24 9.8
2015-Jun-29 20:06N 32°33' W 009°25'9 9.8
2015-Jun-29 19:13N 32°25' W 009°21'  
2015-Jun-26 19:32N 32°19' W 009°15'88 2.1
2015-Jun-25 01:19N 31°01' W 010°04'33 6.4
2015-Jun-24 20:11N 30°30' W 009°52'  

Dump ship's entire track history